createdAt,value
2022-12-08T00:02:09.573Z,101329.44
2022-12-08T00:04:58.453Z,101324.44
2022-12-08T00:07:44.570Z,101261.63
2022-12-08T00:10:46.561Z,101297.69
2022-12-08T00:13:02.034Z,101313.25
2022-12-08T00:15:30.374Z,101318.72
2022-12-08T00:18:00.333Z,101250.06
2022-12-08T00:20:28.705Z,101250.72
2022-12-08T00:22:57.447Z,101299.34
2022-12-08T00:25:25.770Z,101239.66
2022-12-08T00:27:54.089Z,101248.81
2022-12-08T00:30:22.597Z,101277.66
2022-12-08T00:32:51.135Z,101281.41
2022-12-08T00:35:21.184Z,101282.78
2022-12-08T00:37:49.498Z,101243.16
2022-12-08T00:40:18.232Z,101251.31
2022-12-08T00:42:46.706Z,101155.00
2022-12-08T00:45:15.040Z,101273.94
2022-12-08T00:47:43.568Z,101258.78
2022-12-08T00:50:13.434Z,101201.56
2022-12-08T00:52:43.410Z,101261.38
2022-12-08T00:55:11.933Z,101266.78
2022-12-08T00:57:40.357Z,101271.31
2022-12-08T01:00:10.283Z,101249.34
2022-12-08T01:02:38.880Z,101262.25
2022-12-08T01:05:08.915Z,101265.22
2022-12-08T01:07:37.712Z,101249.84
2022-12-08T01:10:09.800Z,101219.09
2022-12-08T01:12:38.149Z,101245.22
2022-12-08T01:15:07.998Z,101245.69
2022-12-08T01:17:38.201Z,101239.94
2022-12-08T01:20:09.174Z,101235.16
2022-12-08T01:22:37.518Z,101234.38
2022-12-08T01:25:08.120Z,101227.53
2022-12-08T01:27:36.401Z,101229.72
2022-12-08T01:30:06.664Z,101125.66
2022-12-08T01:32:35.324Z,101197.72
2022-12-08T01:35:03.937Z,101222.81
2022-12-08T01:37:32.555Z,101220.22
2022-12-08T01:40:01.112Z,101223.06
2022-12-08T01:42:32.417Z,101153.69
2022-12-08T01:45:04.765Z,101224.13
2022-12-08T01:47:40.273Z,101217.84
2022-12-08T01:50:14.527Z,101181.41
2022-12-08T01:52:49.407Z,101078.84
2022-12-08T01:55:24.288Z,101208.78
2022-12-08T01:57:58.849Z,101195.75
2022-12-08T02:00:27.497Z,101194.75
2022-12-08T02:03:01.555Z,101195.19
2022-12-08T02:05:33.783Z,101182.78
2022-12-08T02:08:06.794Z,101197.25
2022-12-08T02:10:39.465Z,101167.56
2022-12-08T02:13:13.712Z,101205.66
2022-12-08T02:15:53.060Z,101201.00
2022-12-08T02:18:50.469Z,101215.41
2022-12-08T02:21:35.118Z,101213.75
2022-12-08T02:24:15.773Z,101205.16
2022-12-08T02:27:29.251Z,101209.47
2022-12-08T02:30:25.389Z,101201.19
2022-12-08T02:33:32.167Z,101194.09
2022-12-08T02:36:08.550Z,101189.34
2022-12-08T02:38:48.988Z,101192.94
2022-12-08T02:41:30.266Z,101175.53
2022-12-08T02:44:05.845Z,101184.69
2022-12-08T02:46:40.705Z,101160.44
2022-12-08T02:49:10.220Z,101135.56
2022-12-08T02:51:40.138Z,101165.44
2022-12-08T02:54:09.031Z,101165.56
2022-12-08T02:56:59.263Z,101164.69
2022-12-08T02:59:42.119Z,101164.47
2022-12-08T03:02:29.944Z,101021.22
2022-12-08T03:05:07.890Z,101106.13
2022-12-08T03:07:45.929Z,101157.97
2022-12-08T03:10:24.194Z,101162.59
2022-12-08T03:13:00.361Z,101128.00
2022-12-08T03:15:31.016Z,101103.88
2022-12-08T03:18:01.466Z,101145.47
2022-12-08T03:20:33.298Z,101138.59
2022-12-08T03:23:08.757Z,101123.16
2022-12-08T03:25:43.555Z,101110.38
2022-12-08T03:28:12.770Z,101086.59
2022-12-08T03:30:45.332Z,101139.94
2022-12-08T03:33:21.348Z,101134.16
2022-12-08T03:35:50.194Z,101130.34
2022-12-08T03:38:20.187Z,101081.91
2022-12-08T03:41:09.087Z,101102.84
2022-12-08T03:43:37.900Z,101103.25
2022-12-08T03:46:06.785Z,101115.97
2022-12-08T03:48:35.305Z,101084.38
2022-12-08T03:51:03.823Z,101026.41
2022-12-08T03:53:33.634Z,101090.47
2022-12-08T03:56:02.100Z,101050.22
2022-12-08T03:58:35.807Z,101082.94
2022-12-08T04:01:05.668Z,101069.47
2022-12-08T04:03:34.246Z,101037.44
2022-12-08T04:06:02.645Z,101023.38
2022-12-08T04:08:31.016Z,101074.81
2022-12-08T04:11:01.044Z,101072.69
2022-12-08T04:13:29.892Z,101062.56
2022-12-08T04:15:58.589Z,101059.47
2022-12-08T04:18:26.906Z,101011.84
2022-12-08T04:20:55.786Z,101041.75
2022-12-08T04:23:24.637Z,101057.09
2022-12-08T04:25:53.391Z,101053.13
2022-12-08T04:28:23.508Z,101022.81
2022-12-08T04:30:52.081Z,101057.63
2022-12-08T04:33:20.530Z,101074.94
2022-12-08T04:35:48.971Z,101071.16
2022-12-08T04:38:18.023Z,101079.41
2022-12-08T04:40:46.501Z,101063.97
2022-12-08T04:43:14.932Z,101058.47
2022-12-08T04:45:45.097Z,101051.94
2022-12-08T04:48:13.690Z,101070.53
2022-12-08T04:50:44.180Z,101023.03
2022-12-08T04:53:14.048Z,101028.94
2022-12-08T04:55:44.195Z,101054.16
2022-12-08T04:58:14.866Z,101044.72
2022-12-08T05:00:45.098Z,101071.38
2022-12-08T05:03:14.693Z,101060.84
2022-12-08T05:05:43.790Z,101058.38
2022-12-08T05:08:12.573Z,101025.66
2022-12-08T05:10:41.048Z,101058.66
2022-12-08T05:13:09.943Z,101067.22
2022-12-08T05:15:38.318Z,101029.44
2022-12-08T05:18:08.652Z,101065.19
2022-12-08T05:20:37.507Z,101063.44
2022-12-08T05:23:05.836Z,101056.25
2022-12-08T05:25:34.134Z,101061.25
2022-12-08T05:28:32.811Z,101062.38
2022-12-08T05:30:51.317Z,101061.16
2022-12-08T05:33:21.028Z,101065.19
2022-12-08T05:35:49.506Z,101059.44
2022-12-08T05:38:17.910Z,101022.41
2022-12-08T05:40:46.369Z,101046.47
2022-12-08T05:43:14.882Z,101020.50
2022-12-08T05:45:43.373Z,101042.66
2022-12-08T05:48:12.111Z,101042.31
2022-12-08T05:50:46.559Z,101005.59
2022-12-08T05:53:16.042Z,101027.97
2022-12-08T05:55:44.670Z,101012.13
2022-12-08T05:58:15.943Z,101030.38
2022-12-08T06:00:44.419Z,101029.06
2022-12-08T06:03:14.649Z,101036.75
2022-12-08T06:05:46.464Z,100997.19
2022-12-08T06:08:16.034Z,100978.53
2022-12-08T06:10:46.236Z,100987.59
2022-12-08T06:13:15.852Z,100995.59
2022-12-08T06:15:44.315Z,100998.28
2022-12-08T06:18:13.355Z,101020.25
2022-12-08T06:20:43.226Z,101023.88
2022-12-08T06:23:11.952Z,100999.47
2022-12-08T06:25:40.640Z,101023.41
2022-12-08T06:28:08.960Z,101019.78
2022-12-08T06:30:38.874Z,101014.94
2022-12-08T06:33:07.873Z,101002.28
2022-12-08T06:35:36.202Z,101013.06
2022-12-08T06:38:05.869Z,100987.34
2022-12-08T06:40:34.153Z,100992.72
2022-12-08T06:43:02.487Z,100954.50
2022-12-08T06:45:30.995Z,100983.09
2022-12-08T06:48:00.175Z,101017.91
2022-12-08T06:50:28.671Z,101020.28
2022-12-08T06:53:04.757Z,101023.41
2022-12-08T06:55:58.693Z,101013.25
2022-12-08T06:58:25.126Z,101039.41
2022-12-08T07:00:53.782Z,100961.16
2022-12-08T07:03:22.782Z,101037.53
2022-12-08T07:05:51.188Z,101046.63
2022-12-08T07:08:19.935Z,101042.59
2022-12-08T07:10:52.380Z,101043.25
2022-12-08T07:13:20.776Z,101007.50
2022-12-08T07:15:49.125Z,101012.19
2022-12-08T07:18:17.600Z,100953.25
2022-12-08T07:20:46.033Z,101009.84
2022-12-08T07:23:14.589Z,101033.69
2022-12-08T07:25:42.919Z,101039.31
2022-12-08T07:28:13.568Z,101035.91
2022-12-08T07:30:42.972Z,101036.97
2022-12-08T07:33:11.388Z,101033.66
2022-12-08T07:35:41.155Z,101005.13
2022-12-08T07:38:13.681Z,101037.78
2022-12-08T07:40:42.288Z,101033.94
2022-12-08T07:43:11.935Z,101038.41
2022-12-08T07:45:41.929Z,101039.97
2022-12-08T07:48:10.385Z,101039.56
2022-12-08T07:50:38.930Z,101026.34
2022-12-08T07:53:08.685Z,100986.66
2022-12-08T07:55:41.405Z,101011.69
2022-12-08T07:58:10.667Z,101024.06
2022-12-08T08:00:40.948Z,101025.09
2022-12-08T08:03:12.554Z,100979.47
2022-12-08T08:05:41.101Z,101020.72
2022-12-08T08:08:09.677Z,101012.47
2022-12-08T08:10:38.266Z,101028.63
2022-12-08T08:13:06.583Z,101004.22
2022-12-08T08:15:35.352Z,101020.44
2022-12-08T08:18:06.391Z,101033.75
2022-12-08T08:20:35.048Z,101005.38
2022-12-08T08:23:03.415Z,101021.75
2022-12-08T08:25:31.780Z,100981.19
2022-12-08T08:28:00.181Z,101008.94
2022-12-08T08:30:28.484Z,101014.28
2022-12-08T08:32:56.843Z,101024.94
2022-12-08T08:35:26.942Z,101029.28
2022-12-08T08:37:55.239Z,101011.38
2022-12-08T08:40:24.457Z,100933.84
2022-12-08T08:42:52.959Z,100990.38
2022-12-08T08:45:21.362Z,101018.56
2022-12-08T08:47:50.475Z,101013.16
2022-12-08T08:50:19.219Z,100966.81
2022-12-08T08:52:50.296Z,101010.03
2022-12-08T08:55:19.587Z,101014.25
2022-12-08T08:57:47.897Z,101013.34
2022-12-08T09:00:18.052Z,100970.53
2022-12-08T09:02:46.397Z,100993.28
2022-12-08T09:05:15.032Z,100967.75
2022-12-08T09:07:43.643Z,100983.50
2022-12-08T09:10:13.632Z,101013.81
2022-12-08T09:12:42.244Z,101015.44
2022-12-08T09:15:11.332Z,101009.94
2022-12-08T09:17:39.700Z,100993.34
2022-12-08T09:20:10.289Z,100982.03
2022-12-08T09:22:38.946Z,101002.69
2022-12-08T09:25:08.167Z,100998.84
2022-12-08T09:27:38.141Z,101009.00
2022-12-08T09:30:08.817Z,100976.69
2022-12-08T09:32:37.471Z,101009.63
2022-12-08T09:35:06.510Z,101005.72
2022-12-08T09:37:35.130Z,101015.50
2022-12-08T09:40:03.918Z,101001.47
2022-12-08T09:42:49.067Z,101014.13
2022-12-08T09:45:19.812Z,101011.59
2022-12-08T09:47:59.004Z,100992.69
2022-12-08T09:50:34.806Z,101015.16
2022-12-08T09:53:10.649Z,101016.47
2022-12-08T09:55:46.000Z,101001.81
2022-12-08T09:58:24.905Z,100968.88
2022-12-08T10:00:54.259Z,101014.31
2022-12-08T10:03:28.371Z,101014.25
2022-12-08T10:06:08.710Z,101007.59
2022-12-08T10:08:48.280Z,100981.34
2022-12-08T10:11:27.845Z,101015.66
2022-12-08T10:14:05.059Z,101014.44
2022-12-08T10:16:40.289Z,101009.25
2022-12-08T10:19:19.837Z,101015.69
2022-12-08T10:21:49.285Z,100980.56
2022-12-08T10:24:27.460Z,101006.94
2022-12-08T10:26:56.436Z,100988.66
2022-12-08T10:29:26.454Z,101011.84
2022-12-08T10:31:55.132Z,101012.91
2022-12-08T10:34:24.773Z,100998.06
2022-12-08T10:36:56.192Z,101006.00
2022-12-08T10:39:36.990Z,100986.38
2022-12-08T10:42:18.504Z,100998.44
2022-12-08T10:45:24.538Z,100997.81
2022-12-08T10:48:03.513Z,100996.50
2022-12-08T10:50:42.590Z,100994.56
2022-12-08T10:53:17.320Z,100969.53
2022-12-08T10:55:48.045Z,100945.94
2022-12-08T10:58:31.698Z,100969.03
2022-12-08T11:01:07.537Z,100986.69
2022-12-08T11:03:40.447Z,100982.22
2022-12-08T11:06:18.895Z,100985.28
2022-12-08T11:08:52.940Z,100965.31
2022-12-08T11:11:29.067Z,100987.66
2022-12-08T11:13:58.157Z,100928.88
2022-12-08T11:16:29.222Z,100974.13
2022-12-08T11:18:59.498Z,100900.88
2022-12-08T11:21:37.971Z,100946.88
2022-12-08T11:24:24.788Z,100971.47
2022-12-08T11:26:58.741Z,100975.94
2022-12-08T11:29:28.569Z,100971.63
2022-12-08T11:32:01.908Z,100971.81
2022-12-08T11:34:37.850Z,100962.91
2022-12-08T11:37:09.527Z,100894.09
2022-12-08T11:39:45.672Z,100946.94
2022-12-08T11:42:18.015Z,100957.00
2022-12-08T11:44:54.605Z,100920.66
2022-12-08T11:47:29.724Z,100953.53
2022-12-08T11:50:19.836Z,100943.00
2022-12-08T11:52:51.848Z,100929.69
2022-12-08T11:55:37.337Z,100934.91
2022-12-08T11:58:17.978Z,100933.63
2022-12-08T12:00:46.573Z,100934.69
2022-12-08T12:03:29.824Z,100896.88
2022-12-08T12:06:53.317Z,100909.25
2022-12-08T12:09:27.729Z,100916.31
2022-12-08T12:12:17.068Z,100915.28
2022-12-08T12:15:21.786Z,100913.06
2022-12-08T12:17:54.276Z,100837.47
2022-12-08T12:20:31.896Z,100888.50
2022-12-08T12:23:06.321Z,100890.63
2022-12-08T12:25:37.194Z,100892.75
2022-12-08T12:28:09.400Z,100891.19
2022-12-08T12:30:57.547Z,100890.84
2022-12-08T12:33:26.577Z,100888.69
2022-12-08T12:36:03.150Z,100879.50
2022-12-08T12:38:53.948Z,100881.47
2022-12-08T12:41:27.388Z,100874.00
2022-12-08T12:44:44.585Z,100881.47
2022-12-08T12:47:54.115Z,100889.00
2022-12-08T12:50:45.993Z,100879.22
2022-12-08T12:53:51.247Z,100887.69
2022-12-08T12:56:56.713Z,100904.75
2022-12-08T12:59:54.661Z,100904.63
2022-12-08T13:02:27.030Z,100917.38
2022-12-08T13:05:01.996Z,100906.00
2022-12-08T13:07:34.173Z,100914.25
2022-12-08T13:10:17.618Z,100884.72
2022-12-08T13:12:47.299Z,100854.84
2022-12-08T13:15:21.481Z,100897.25
2022-12-08T13:17:50.980Z,100884.56
2022-12-08T13:20:24.774Z,100896.78
2022-12-08T13:23:30.469Z,100891.78
2022-12-08T13:26:20.212Z,100890.59
2022-12-08T13:29:23.777Z,100891.09
2022-12-08T13:31:54.725Z,100888.38
2022-12-08T13:34:41.282Z,100811.31
2022-12-08T13:37:27.222Z,100868.34
2022-12-08T13:40:01.725Z,100860.22
2022-12-08T13:42:42.171Z,100872.75
2022-12-08T13:45:39.816Z,100839.09
2022-12-08T13:48:42.200Z,100869.94
2022-12-08T13:55:00.683Z,100864.63
2022-12-08T13:57:08.509Z,100874.31
2022-12-08T13:59:45.610Z,100869.59
2022-12-08T14:02:21.630Z,100874.69
2022-12-08T14:07:41.465Z,100867.13
2022-12-08T14:10:15.930Z,100865.78
2022-12-08T14:12:53.272Z,100873.28
2022-12-08T14:15:23.673Z,100860.00
2022-12-08T14:17:57.984Z,100869.97
2022-12-08T14:20:31.415Z,100862.19
2022-12-08T14:23:00.763Z,100872.25
2022-12-08T14:25:30.709Z,100861.59
2022-12-08T14:28:02.802Z,100857.25
2022-12-08T14:30:33.717Z,100869.75
2022-12-08T14:33:04.175Z,100867.81
2022-12-08T14:35:35.623Z,100843.91
2022-12-08T14:38:06.875Z,100872.28
2022-12-08T14:40:37.595Z,100848.78
2022-12-08T14:43:18.227Z,100874.38
2022-12-08T14:45:53.587Z,100854.59
2022-12-08T14:48:27.324Z,100867.72
2022-12-08T14:51:06.394Z,100862.91
2022-12-08T14:53:41.700Z,100856.66
2022-12-08T14:56:21.817Z,100850.81
2022-12-08T14:58:52.923Z,100782.72
2022-12-08T15:01:25.086Z,100873.34
2022-12-08T15:03:55.539Z,100861.69
2022-12-08T15:06:24.726Z,100872.25
2022-12-08T15:08:58.856Z,100833.28
2022-12-08T15:11:37.174Z,100879.81
2022-12-08T15:14:05.684Z,100862.75
2022-12-08T15:16:43.942Z,100880.88
2022-12-08T15:19:28.940Z,100883.00
2022-12-08T15:22:00.132Z,100876.03
2022-12-08T15:24:31.939Z,100881.88
2022-12-08T15:27:00.369Z,100871.59
2022-12-08T15:29:31.453Z,100847.78
2022-12-08T15:32:02.930Z,100888.50
2022-12-08T15:34:31.910Z,100887.56
2022-12-08T15:37:00.592Z,100900.66
2022-12-08T15:39:34.015Z,100895.63
2022-12-08T15:42:03.756Z,100865.13
2022-12-08T15:44:32.981Z,100871.00
2022-12-08T15:47:03.069Z,100892.72
2022-12-08T15:49:31.501Z,100895.25
2022-12-08T15:52:10.694Z,100894.94
2022-12-08T15:54:40.256Z,100891.63
2022-12-08T15:57:53.080Z,100870.97
2022-12-08T16:07:04.751Z,100861.59
2022-12-08T16:09:15.933Z,100856.06
2022-12-08T16:12:07.193Z,100851.66
2022-12-08T16:17:24.859Z,100853.28
2022-12-08T16:19:57.192Z,100873.13
2022-12-08T16:25:19.781Z,100828.88
2022-12-08T16:28:29.585Z,100864.22
2022-12-08T16:30:39.322Z,100873.66
2022-12-08T16:33:07.865Z,100846.06
2022-12-08T16:35:38.032Z,100864.09
2022-12-08T16:38:06.516Z,100843.22
2022-12-08T16:40:55.937Z,100849.16
2022-12-08T16:43:23.464Z,100835.38
2022-12-08T16:45:51.747Z,100859.13
2022-12-08T16:48:20.623Z,100853.84
2022-12-08T16:50:50.368Z,100862.81
2022-12-08T16:53:18.985Z,100861.66
2022-12-08T16:55:48.828Z,100851.06
2022-12-08T16:58:18.606Z,100846.28
2022-12-08T17:00:47.328Z,100819.56
2022-12-08T17:03:17.701Z,100852.25
2022-12-08T17:05:46.315Z,100821.81
2022-12-08T17:08:16.259Z,100856.03
2022-12-08T17:10:44.794Z,100850.72
2022-12-08T17:13:16.856Z,100860.41
2022-12-08T17:15:45.198Z,100853.44
2022-12-08T17:18:13.760Z,100853.75
2022-12-08T17:20:42.089Z,100807.78
2022-12-08T17:23:10.730Z,100852.19
2022-12-08T17:25:40.514Z,100851.63
2022-12-08T17:28:08.985Z,100851.63
2022-12-08T17:30:37.718Z,100858.78
2022-12-08T17:33:06.081Z,100857.69
2022-12-08T17:35:34.633Z,100791.69
2022-12-08T17:38:03.030Z,100775.34
2022-12-08T17:40:31.471Z,100819.25
2022-12-08T17:43:01.170Z,100805.16
2022-12-08T17:45:29.533Z,100839.94
2022-12-08T17:47:58.012Z,100790.56
2022-12-08T17:50:26.436Z,100812.53
2022-12-08T17:52:54.792Z,100831.28
2022-12-08T17:55:23.557Z,100791.28
2022-12-08T17:57:51.946Z,100827.78
2022-12-08T18:00:22.263Z,100751.03
2022-12-08T18:02:51.075Z,100809.09
2022-12-08T18:05:20.135Z,100737.63
2022-12-08T18:07:48.800Z,100781.63
2022-12-08T18:10:18.404Z,100827.91
2022-12-08T18:12:47.352Z,100835.66
2022-12-08T18:15:20.524Z,100789.50
2022-12-08T18:17:50.422Z,100822.91
2022-12-08T18:20:19.430Z,100837.19
2022-12-08T18:22:47.834Z,100835.59
2022-12-08T18:25:16.520Z,100837.31
2022-12-08T18:27:45.513Z,100612.97
2022-12-08T18:30:18.901Z,100810.50
2022-12-08T18:32:47.493Z,100810.03
2022-12-08T18:35:17.347Z,100834.84
2022-12-08T18:37:47.159Z,100810.84
2022-12-08T18:40:16.510Z,100800.56
2022-12-08T18:42:44.987Z,100835.72
2022-12-08T18:45:17.883Z,100810.88
2022-12-08T18:47:50.858Z,100827.56
2022-12-08T18:50:20.942Z,100834.44
2022-12-08T18:52:49.710Z,100809.81
2022-12-08T18:55:18.179Z,100785.69
2022-12-08T18:57:46.937Z,100772.50
2022-12-08T19:00:18.925Z,100836.81
2022-12-08T19:02:47.499Z,100824.59
2022-12-08T19:05:16.663Z,100828.50
2022-12-08T19:07:46.978Z,100828.38
2022-12-08T19:10:16.102Z,100841.47
2022-12-08T19:12:44.440Z,100831.72
2022-12-08T19:15:13.643Z,100824.38
2022-12-08T19:17:42.228Z,100819.47
2022-12-08T19:20:12.013Z,100790.00
2022-12-08T19:22:40.584Z,100812.13
2022-12-08T19:25:11.173Z,100805.84
2022-12-08T19:27:39.627Z,100809.66
2022-12-08T19:30:11.319Z,100811.16
2022-12-08T19:32:39.772Z,100809.84
2022-12-08T19:35:09.116Z,100812.94
2022-12-08T19:37:37.776Z,100789.81
2022-12-08T19:40:29.202Z,100807.72
2022-12-08T19:43:14.416Z,100804.31
2022-12-08T19:45:43.196Z,100813.63
2022-12-08T19:48:12.885Z,100813.09
2022-12-08T19:50:42.134Z,100814.44
2022-12-08T19:53:14.535Z,100804.81
2022-12-08T19:55:45.588Z,100819.88
2022-12-08T19:58:14.983Z,100799.09
2022-12-08T20:00:45.193Z,100805.22
2022-12-08T20:03:17.015Z,100805.72
2022-12-08T20:05:46.895Z,100795.94
2022-12-08T20:08:16.107Z,100792.13
2022-12-08T20:10:46.804Z,100806.41
2022-12-08T20:13:32.725Z,100802.13
2022-12-08T20:16:01.421Z,100796.22
2022-12-08T20:18:30.274Z,100732.41
2022-12-08T20:20:59.148Z,100804.13
2022-12-08T20:23:27.521Z,100749.19
2022-12-08T20:25:57.780Z,100810.38
2022-12-08T20:28:26.396Z,100809.09
2022-12-08T20:30:55.185Z,100778.47
2022-12-08T20:33:23.803Z,100736.94
2022-12-08T20:36:00.857Z,100778.69
2022-12-08T20:38:30.245Z,100730.09
2022-12-08T20:41:00.777Z,100812.97
2022-12-08T20:43:29.392Z,100814.81
2022-12-08T20:45:57.909Z,100661.28
2022-12-08T20:48:26.432Z,100745.94
2022-12-08T20:50:55.031Z,100816.41
2022-12-08T20:53:23.785Z,100817.22
2022-12-08T20:55:52.215Z,100814.00
2022-12-08T20:58:24.676Z,100809.97
2022-12-08T21:00:53.254Z,100805.81
2022-12-08T21:03:22.015Z,100822.91
2022-12-08T21:05:52.132Z,100777.16
2022-12-08T21:08:25.066Z,100811.28
2022-12-08T21:10:57.952Z,100799.97
2022-12-08T21:13:27.924Z,100837.66
2022-12-08T21:15:56.489Z,100605.56
2022-12-08T21:18:26.036Z,100797.69
2022-12-08T21:21:02.652Z,100799.19
2022-12-08T21:23:31.343Z,100819.25
2022-12-08T21:26:01.217Z,100634.91
2022-12-08T21:28:31.263Z,100749.38
2022-12-08T21:30:59.887Z,100819.97
2022-12-08T21:33:28.483Z,100796.66
2022-12-08T21:36:04.430Z,100822.91
2022-12-08T21:38:33.649Z,100773.53
2022-12-08T21:41:06.023Z,100829.97
2022-12-08T21:43:36.152Z,100748.16
2022-12-08T21:46:04.993Z,100842.22
2022-12-08T21:48:33.487Z,100820.44
2022-12-08T21:51:05.869Z,100844.34
2022-12-08T21:53:34.330Z,100682.16
2022-12-08T21:56:02.987Z,100834.25
2022-12-08T21:58:32.799Z,100842.28
2022-12-08T22:01:08.947Z,100816.03
2022-12-08T22:03:37.991Z,100833.84
2022-12-08T22:06:07.911Z,100802.84
2022-12-08T22:08:36.834Z,100825.16
2022-12-08T22:11:07.040Z,100834.84
2022-12-08T22:13:36.054Z,100827.84
2022-12-08T22:16:10.032Z,100842.84
2022-12-08T22:18:39.665Z,100773.69
2022-12-08T22:21:10.962Z,100842.28
2022-12-08T22:23:39.697Z,100845.69
2022-12-08T22:26:09.424Z,100836.75
2022-12-08T22:28:40.689Z,100793.81
2022-12-08T22:31:14.688Z,100733.16
2022-12-08T22:33:44.508Z,100817.31
2022-12-08T22:36:17.636Z,100830.81
2022-12-08T22:38:46.383Z,100850.44
2022-12-08T22:41:15.550Z,100829.34
2022-12-08T22:43:44.823Z,100849.03
2022-12-08T22:46:18.690Z,100863.69
2022-12-08T22:48:47.971Z,100817.28
2022-12-08T22:51:17.011Z,100838.41
2022-12-08T22:53:46.184Z,100850.97
2022-12-08T22:56:16.617Z,100852.84
2022-12-08T22:58:45.551Z,100797.56
2022-12-08T23:01:26.810Z,100833.88
2022-12-08T23:03:55.715Z,100832.50
2022-12-08T23:06:24.943Z,100853.09
2022-12-08T23:08:54.243Z,100830.94
2022-12-08T23:11:25.273Z,100814.63
2022-12-08T23:13:53.826Z,100851.69
2022-12-08T23:16:24.632Z,100835.63
2022-12-08T23:18:53.762Z,100851.00
2022-12-08T23:21:22.575Z,100824.31
2022-12-08T23:23:51.145Z,100858.06
2022-12-08T23:26:24.809Z,100860.50
2022-12-08T23:28:53.499Z,100858.59
2022-12-08T23:31:25.097Z,100784.94
2022-12-08T23:33:55.099Z,100857.78
2022-12-08T23:36:26.859Z,100806.69
2022-12-08T23:38:56.008Z,100833.13
2022-12-08T23:41:24.935Z,100852.28
2022-12-08T23:43:54.141Z,100857.22
2022-12-08T23:46:24.653Z,100779.00
2022-12-08T23:48:53.299Z,100852.66
2022-12-08T23:51:22.028Z,100858.84
2022-12-08T23:53:50.536Z,100849.03
2022-12-08T23:56:22.102Z,100844.00
2022-12-08T23:58:52.007Z,100805.25
